createdAt,value
2016-09-17T00:00:02.118Z,17.86
2016-09-17T00:01:03.387Z,17.98
2016-09-17T00:02:04.930Z,18.01
2016-09-17T00:03:05.632Z,18.03
2016-09-17T00:04:06.864Z,17.97
2016-09-17T00:05:07.529Z,18.07
2016-09-17T00:06:08.255Z,17.97
2016-09-17T00:07:10.872Z,18.01
2016-09-17T00:08:11.715Z,17.97
2016-09-17T00:09:12.343Z,18
2016-09-17T00:10:12.999Z,18.01
2016-09-17T00:11:13.671Z,18
2016-09-17T00:12:14.338Z,18.03
2016-09-17T00:13:14.987Z,18.07
2016-09-17T00:14:15.638Z,18.05
2016-09-17T00:15:16.303Z,18.04
2016-09-17T00:16:16.971Z,18.04
2016-09-17T00:17:17.643Z,18.04
2016-09-17T00:18:18.390Z,18.11
2016-09-17T00:19:19.078Z,18.13
2016-09-17T00:20:19.779Z,18.23
2016-09-17T00:21:20.441Z,18.18
2016-09-17T00:22:21.078Z,18.23
2016-09-17T00:23:21.739Z,18.23
2016-09-17T00:24:23.126Z,18.19
2016-09-17T00:25:23.794Z,18.29
2016-09-17T00:26:24.917Z,18.28
2016-09-17T00:27:25.401Z,18.33
2016-09-17T00:28:26.070Z,18.28
2016-09-17T00:29:26.776Z,18.34
2016-09-17T00:30:27.409Z,18.38
2016-09-17T00:31:28.082Z,18.34
2016-09-17T00:32:28.812Z,18.37
2016-09-17T00:33:29.482Z,18.37
2016-09-17T00:34:30.160Z,18.4
2016-09-17T00:35:30.825Z,18.4
2016-09-17T00:36:31.512Z,18.44
2016-09-17T00:37:32.160Z,18.45
2016-09-17T00:38:32.827Z,18.41
2016-09-17T00:39:33.525Z,18.38
2016-09-17T00:40:34.192Z,18.43
2016-09-17T00:41:34.855Z,18.4
2016-09-17T00:42:35.520Z,18.38
2016-09-17T00:43:36.193Z,18.35
2016-09-17T00:44:36.854Z,18.37
2016-09-17T00:45:37.513Z,18.31
2016-09-17T00:46:38.198Z,18.28
2016-09-17T00:47:38.873Z,18.37
2016-09-17T00:48:39.513Z,18.28
2016-09-17T00:49:40.167Z,18.34
2016-09-17T00:50:40.814Z,18.33
2016-09-17T00:51:41.477Z,18.37
2016-09-17T00:52:42.130Z,18.37
2016-09-17T00:53:42.800Z,18.35
2016-09-17T00:54:43.476Z,18.38
2016-09-17T00:55:44.121Z,18.4
2016-09-17T00:56:44.767Z,18.37
2016-09-17T00:57:45.430Z,18.4
2016-09-17T00:58:46.084Z,18.44
2016-09-17T00:59:46.744Z,18.44
2016-09-17T01:00:47.395Z,18.43
2016-09-17T01:01:48.048Z,18.4
2016-09-17T01:02:48.700Z,18.35
2016-09-17T01:03:49.339Z,18.35
2016-09-17T01:04:49.977Z,18.4
2016-09-17T01:05:50.629Z,18.38
2016-09-17T01:06:51.274Z,18.4
2016-09-17T01:07:51.909Z,18.37
2016-09-17T01:08:52.571Z,18.41
2016-09-17T01:09:53.215Z,18.38
2016-09-17T01:10:53.863Z,18.37
2016-09-17T01:11:54.507Z,18.31
2016-09-17T01:12:55.147Z,18.23
2016-09-17T01:13:55.846Z,18.29
2016-09-17T01:14:56.495Z,18.37
2016-09-17T01:15:57.450Z,18.28
2016-09-17T01:16:58.103Z,18.35
2016-09-17T01:17:58.753Z,18.29
2016-09-17T01:18:59.395Z,18.4
2016-09-17T01:20:00.078Z,18.37
2016-09-17T01:21:00.710Z,18.29
2016-09-17T01:22:01.364Z,18.38
2016-09-17T01:23:03.121Z,18.37
2016-09-17T01:24:03.767Z,18.29
2016-09-17T01:25:04.420Z,18.25
2016-09-17T01:26:05.078Z,18.34
2016-09-17T01:27:05.766Z,18.37
2016-09-17T01:28:06.398Z,18.38
2016-09-17T01:29:07.042Z,18.28
2016-09-17T01:30:07.711Z,18.29
2016-09-17T01:31:08.378Z,18.33
2016-09-17T01:32:09.120Z,18.37
2016-09-17T01:33:09.742Z,18.38
2016-09-17T01:34:10.397Z,18.37
2016-09-17T01:35:11.046Z,18.38
2016-09-17T01:36:11.689Z,18.38
2016-09-17T01:37:12.369Z,18.34
2016-09-17T01:38:13.000Z,18.33
2016-09-17T01:39:13.661Z,18.35
2016-09-17T01:40:14.330Z,18.37
2016-09-17T01:41:14.997Z,18.34
2016-09-17T01:42:15.686Z,18.35
2016-09-17T01:43:16.354Z,18.41
2016-09-17T01:44:17.017Z,18.38
2016-09-17T01:45:17.679Z,18.35
2016-09-17T01:46:18.324Z,18.38
2016-09-17T01:47:18.951Z,18.31
2016-09-17T01:48:19.608Z,18.28
2016-09-17T01:49:20.246Z,18.31
2016-09-17T01:50:20.908Z,18.25
2016-09-17T01:51:21.565Z,18.31
2016-09-17T01:52:22.204Z,18.33
2016-09-17T01:53:22.868Z,18.28
2016-09-17T01:54:23.532Z,18.35
2016-09-17T01:55:24.177Z,18.31
2016-09-17T01:56:24.813Z,18.31
2016-09-17T01:57:25.476Z,18.31
2016-09-17T01:58:26.137Z,18.31
2016-09-17T01:59:26.788Z,18.26
2016-09-17T02:00:27.433Z,18.07
2016-09-17T02:01:28.088Z,18.22
2016-09-17T02:02:28.737Z,18.15
2016-09-17T02:03:29.402Z,18.04
2016-09-17T02:04:30.053Z,18.07
2016-09-17T02:05:30.704Z,18.18
2016-09-17T02:06:31.368Z,17.98
2016-09-17T02:07:32.009Z,18.04
2016-09-17T02:08:32.666Z,17.89
2016-09-17T02:09:33.308Z,17.94
2016-09-17T02:10:33.957Z,17.87
2016-09-17T02:11:34.608Z,17.94
2016-09-17T02:12:35.261Z,17.94
2016-09-17T02:13:35.914Z,18
2016-09-17T02:14:36.552Z,17.97
2016-09-17T02:15:37.189Z,17.89
2016-09-17T02:16:37.841Z,17.92
2016-09-17T02:17:38.477Z,18.03
2016-09-17T02:18:39.137Z,17.97
2016-09-17T02:19:39.785Z,18.1
2016-09-17T02:20:40.428Z,18.08
2016-09-17T02:21:41.395Z,18.01
2016-09-17T02:22:42.055Z,18.03
2016-09-17T02:23:42.704Z,18.03
2016-09-17T02:24:43.339Z,18
2016-09-17T02:25:43.988Z,18.01
2016-09-17T02:26:44.628Z,17.98
2016-09-17T02:27:45.267Z,18.08
2016-09-17T02:28:45.907Z,18.07
2016-09-17T02:29:46.560Z,18.07
2016-09-17T02:30:47.208Z,18.04
2016-09-17T02:31:47.857Z,18.01
2016-09-17T02:32:48.507Z,18.03
2016-09-17T02:33:49.153Z,18.04
2016-09-17T02:34:49.789Z,18.13
2016-09-17T02:35:50.440Z,18.07
2016-09-17T02:36:51.100Z,18.04
2016-09-17T02:37:51.741Z,18.07
2016-09-17T02:38:52.419Z,18.07
2016-09-17T02:39:53.055Z,18.13
2016-09-17T02:40:53.726Z,18.01
2016-09-17T02:41:54.363Z,18.04
2016-09-17T02:42:55.007Z,18.07
2016-09-17T02:43:55.650Z,18.07
2016-09-17T02:44:56.287Z,18.05
2016-09-17T02:45:56.935Z,18.05
2016-09-17T02:46:57.587Z,18.05
2016-09-17T02:47:58.226Z,18.04
2016-09-17T02:48:58.865Z,18
2016-09-17T02:49:59.521Z,18.03
2016-09-17T02:51:00.175Z,17.97
2016-09-17T02:52:00.828Z,17.89
2016-09-17T02:53:01.493Z,17.9
2016-09-17T02:54:02.157Z,17.95
2016-09-17T02:55:02.809Z,18.01
2016-09-17T02:56:03.447Z,18
2016-09-17T02:57:04.123Z,18.01
2016-09-17T02:58:04.773Z,18.01
2016-09-17T02:59:05.426Z,17.97
2016-09-17T03:00:06.085Z,17.87
2016-09-17T03:01:06.734Z,17.87
2016-09-17T03:02:07.390Z,17.92
2016-09-17T03:03:08.038Z,17.92
2016-09-17T03:04:08.681Z,17.95
2016-09-17T03:05:09.332Z,17.89
2016-09-17T03:06:10.791Z,17.89
2016-09-17T03:07:11.804Z,18.07
2016-09-17T03:08:12.452Z,17.98
2016-09-17T03:09:13.106Z,18
2016-09-17T03:10:13.766Z,18.03
2016-09-17T03:11:14.401Z,17.89
2016-09-17T03:12:15.068Z,17.89
2016-09-17T03:13:15.738Z,17.83
2016-09-17T03:14:16.405Z,17.87
2016-09-17T03:15:17.050Z,17.82
2016-09-17T03:16:17.707Z,17.83
2016-09-17T03:17:18.368Z,17.82
2016-09-17T03:18:19.005Z,17.79
2016-09-17T03:19:19.656Z,17.79
2016-09-17T03:20:20.299Z,17.76
2016-09-17T03:21:20.962Z,17.71
2016-09-17T03:22:21.638Z,17.72
2016-09-17T03:23:22.304Z,17.8
2016-09-17T03:24:22.985Z,17.72
2016-09-17T03:25:23.621Z,17.71
2016-09-17T03:26:24.288Z,17.79
2016-09-17T03:27:24.952Z,17.8
2016-09-17T03:28:25.631Z,17.78
2016-09-17T03:29:26.293Z,17.71
2016-09-17T03:30:26.928Z,17.76
2016-09-17T03:31:27.593Z,17.71
2016-09-17T03:32:28.279Z,17.71
2016-09-17T03:33:28.958Z,17.65
2016-09-17T03:34:29.600Z,17.7
2016-09-17T03:35:30.272Z,17.68
2016-09-17T03:36:30.913Z,17.67
2016-09-17T03:37:31.562Z,17.6
2016-09-17T03:38:32.239Z,17.57
2016-09-17T03:39:32.918Z,17.63
2016-09-17T03:40:33.729Z,17.56
2016-09-17T03:41:34.359Z,17.65
2016-09-17T03:42:35.038Z,17.7
2016-09-17T03:43:35.745Z,17.65
2016-09-17T03:44:36.378Z,17.65
2016-09-17T03:45:37.045Z,17.63
2016-09-17T03:46:37.687Z,17.6
2016-09-17T03:47:38.334Z,17.63
2016-09-17T03:48:38.986Z,17.64
2016-09-17T03:49:39.659Z,17.54
2016-09-17T03:50:40.355Z,17.7
2016-09-17T03:51:41.023Z,17.67
2016-09-17T03:52:41.682Z,17.7
2016-09-17T03:53:42.335Z,17.64
2016-09-17T03:54:42.995Z,17.71
2016-09-17T03:55:43.654Z,17.63
2016-09-17T03:56:44.338Z,17.63
2016-09-17T03:57:45.034Z,17.57
2016-09-17T03:58:45.661Z,17.65
2016-09-17T03:59:46.307Z,17.59
2016-09-17T04:00:46.983Z,17.67
2016-09-17T04:01:47.750Z,17.59
2016-09-17T04:02:48.383Z,17.56
2016-09-17T04:03:49.038Z,17.52
2016-09-17T04:04:49.684Z,17.48
2016-09-17T04:05:50.356Z,17.59
2016-09-17T04:06:51.014Z,17.54
2016-09-17T04:07:51.746Z,17.46
2016-09-17T04:08:52.420Z,17.52
2016-09-17T04:09:53.089Z,17.42
2016-09-17T04:10:53.767Z,17.3
2016-09-17T04:11:54.431Z,17.39
2016-09-17T04:12:55.068Z,17.24
2016-09-17T04:13:55.701Z,17.29
2016-09-17T04:14:56.344Z,17.08
2016-09-17T04:15:56.995Z,17.08
2016-09-17T04:16:57.643Z,17.14
2016-09-17T04:17:58.337Z,17.11
2016-09-17T04:18:58.995Z,17.12
2016-09-17T04:19:59.649Z,17.16
2016-09-17T04:21:00.305Z,17.19
2016-09-17T04:22:00.958Z,17.11
2016-09-17T04:23:01.599Z,17.12
2016-09-17T04:24:02.262Z,17.08
2016-09-17T04:25:02.917Z,17.11
2016-09-17T04:26:03.581Z,17.08
2016-09-17T04:27:04.274Z,17.14
2016-09-17T04:28:04.942Z,17.11
2016-09-17T04:29:05.595Z,17.15
2016-09-17T04:30:06.249Z,17.19
2016-09-17T04:31:06.961Z,17.16
2016-09-17T04:32:07.629Z,17.02
2016-09-17T04:33:08.293Z,17.14
2016-09-17T04:34:08.939Z,17.09
2016-09-17T04:35:09.594Z,17.14
2016-09-17T04:36:10.264Z,17.11
2016-09-17T04:37:10.913Z,17.02
2016-09-17T04:38:11.570Z,17.08
2016-09-17T04:39:12.219Z,17.06
2016-09-17T04:40:12.870Z,17.08
2016-09-17T04:41:13.523Z,17.04
2016-09-17T04:42:14.156Z,17.04
2016-09-17T04:43:14.807Z,17.02
2016-09-17T04:44:15.453Z,17.02
2016-09-17T04:45:16.099Z,17.06
2016-09-17T04:46:16.741Z,17.11
2016-09-17T04:47:17.389Z,17.11
2016-09-17T04:48:18.038Z,17.08
2016-09-17T04:49:18.703Z,17.09
2016-09-17T04:50:19.352Z,17.09
2016-09-17T04:51:20.001Z,17.12
2016-09-17T04:52:20.654Z,17.08
2016-09-17T04:53:21.319Z,17.11
2016-09-17T04:54:21.968Z,17.11
2016-09-17T04:55:22.634Z,17.08
2016-09-17T04:56:23.282Z,17.11
2016-09-17T04:57:23.936Z,17.08
2016-09-17T04:58:24.602Z,16.99
2016-09-17T04:59:25.269Z,17.06
2016-09-17T05:00:25.902Z,17.09
2016-09-17T05:01:26.560Z,17.02
2016-09-17T05:02:27.212Z,17.06
2016-09-17T05:03:27.854Z,17.05
2016-09-17T05:04:28.531Z,17.04
2016-09-17T05:05:29.179Z,17.02
2016-09-17T05:06:29.843Z,17.01
2016-09-17T05:07:30.494Z,17.11
2016-09-17T05:08:31.141Z,17.09
2016-09-17T05:09:31.775Z,17.11
2016-09-17T05:10:32.411Z,17.08
2016-09-17T05:11:33.060Z,17.12
2016-09-17T05:12:33.716Z,17.12
2016-09-17T05:13:34.380Z,17.14
2016-09-17T05:14:35.017Z,17.06
2016-09-17T05:15:35.665Z,17.11
2016-09-17T05:16:36.310Z,17.12
2016-09-17T05:17:36.965Z,17.11
2016-09-17T05:18:37.622Z,17.14
2016-09-17T05:19:38.288Z,17.12
2016-09-17T05:20:38.933Z,17.12
2016-09-17T05:21:39.607Z,17.14
2016-09-17T05:22:40.256Z,17.11
2016-09-17T05:23:40.896Z,17.12
2016-09-17T05:24:41.536Z,17.16
2016-09-17T05:25:42.211Z,17.14
2016-09-17T05:26:42.863Z,17.08
2016-09-17T05:27:43.498Z,17.06
2016-09-17T05:28:44.149Z,17.11
2016-09-17T05:29:44.817Z,17.12
2016-09-17T05:30:45.454Z,17.19
2016-09-17T05:31:46.110Z,17.11
2016-09-17T05:32:46.766Z,17.2
2016-09-17T05:33:47.411Z,17.14
2016-09-17T05:34:48.050Z,17.12
2016-09-17T05:35:48.707Z,17.16
2016-09-17T05:36:49.346Z,17.11
2016-09-17T05:37:50.001Z,17.19
2016-09-17T05:38:50.675Z,17.08
2016-09-17T05:39:51.331Z,17.12
2016-09-17T05:40:51.985Z,17.14
2016-09-17T05:41:52.614Z,17.09
2016-09-17T05:42:53.259Z,17.19
2016-09-17T05:43:53.904Z,17.14
2016-09-17T05:44:54.542Z,17.15
2016-09-17T05:45:55.209Z,17.14
2016-09-17T05:46:55.847Z,17.14
2016-09-17T05:47:56.501Z,17.22
2016-09-17T05:48:57.153Z,17.16
2016-09-17T05:49:57.816Z,17.16
2016-09-17T05:50:58.476Z,17.19
2016-09-17T05:51:59.134Z,17.2
2016-09-17T05:52:59.779Z,17.16
2016-09-17T05:54:00.421Z,17.16
2016-09-17T05:55:01.085Z,17.15
2016-09-17T05:56:01.748Z,17.15
2016-09-17T05:57:02.396Z,17.05
2016-09-17T05:58:03.075Z,17.08
2016-09-17T05:59:03.712Z,17.08
2016-09-17T06:00:04.419Z,17.11
2016-09-17T06:01:05.082Z,17.15
2016-09-17T06:02:05.755Z,17.16
2016-09-17T06:03:06.403Z,17.23
2016-09-17T06:04:07.046Z,17.14
2016-09-17T06:05:07.702Z,17.23
2016-09-17T06:06:08.365Z,17.29
2016-09-17T06:07:09.016Z,17.27
2016-09-17T06:08:09.663Z,17.31
2016-09-17T06:09:10.327Z,17.29
2016-09-17T06:10:10.980Z,17.29
2016-09-17T06:11:11.637Z,17.24
2016-09-17T06:12:12.289Z,17.23
2016-09-17T06:13:12.946Z,17.3
2016-09-17T06:14:13.604Z,17.26
2016-09-17T06:15:14.247Z,17.15
2016-09-17T06:16:14.892Z,17.23
2016-09-17T06:17:15.560Z,17.23
2016-09-17T06:18:16.203Z,17.16
2016-09-17T06:19:16.908Z,17.19
2016-09-17T06:20:17.515Z,17.34
2016-09-17T06:21:18.184Z,17.27
2016-09-17T06:22:18.845Z,17.24
2016-09-17T06:23:19.502Z,17.29
2016-09-17T06:24:20.149Z,17.19
2016-09-17T06:25:20.791Z,17.26
2016-09-17T06:26:21.431Z,17.26
2016-09-17T06:27:22.110Z,17.05
2016-09-17T06:28:22.767Z,17.11
2016-09-17T06:29:23.432Z,17.16
2016-09-17T06:30:24.064Z,17.23
2016-09-17T06:31:24.710Z,17.23
2016-09-17T06:32:25.346Z,17.24
2016-09-17T06:33:25.991Z,17.23
2016-09-17T06:34:26.635Z,17.3
2016-09-17T06:35:27.294Z,17.36
2016-09-17T06:36:27.939Z,17.22
2016-09-17T06:37:28.585Z,17.2
2016-09-17T06:38:29.229Z,17.14
2016-09-17T06:39:29.889Z,17.15
2016-09-17T06:40:30.530Z,17.15
2016-09-17T06:41:31.192Z,17.22
2016-09-17T06:42:31.824Z,17.14
2016-09-17T06:43:32.485Z,17.2
2016-09-17T06:44:33.154Z,17.23
2016-09-17T06:45:33.804Z,17.24
2016-09-17T06:46:34.455Z,17.29
2016-09-17T06:47:35.092Z,17.26
2016-09-17T06:48:35.759Z,17.26
2016-09-17T06:49:36.421Z,17.31
2016-09-17T06:50:37.087Z,17.22
2016-09-17T06:51:37.727Z,17.29
2016-09-17T06:52:38.378Z,17.36
2016-09-17T06:53:39.030Z,17.34
2016-09-17T06:54:39.693Z,17.31
2016-09-17T06:55:40.344Z,17.29
2016-09-17T06:56:40.987Z,17.29
2016-09-17T06:57:41.648Z,17.29
2016-09-17T06:58:42.299Z,17.22
2016-09-17T06:59:42.941Z,17.2
2016-09-17T07:00:43.623Z,17.29
2016-09-17T07:01:44.282Z,17.3
2016-09-17T07:02:44.917Z,17.29
2016-09-17T07:03:45.567Z,17.29
2016-09-17T07:04:46.208Z,17.26
2016-09-17T07:05:46.854Z,17.29
2016-09-17T07:06:47.507Z,17.26
2016-09-17T07:07:48.155Z,17.36
2016-09-17T07:08:48.845Z,17.38
2016-09-17T07:09:49.501Z,17.44
2016-09-17T07:10:50.137Z,17.44
2016-09-17T07:11:50.787Z,17.46
2016-09-17T07:12:51.458Z,17.44
2016-09-17T07:13:52.124Z,17.45
2016-09-17T07:14:52.772Z,17.39
2016-09-17T07:15:53.424Z,17.48
2016-09-17T07:16:54.086Z,17.48
2016-09-17T07:17:54.737Z,17.51
2016-09-17T07:18:55.411Z,17.54
2016-09-17T07:19:56.068Z,17.51
2016-09-17T07:20:56.737Z,17.51
2016-09-17T07:21:57.377Z,17.45
2016-09-17T07:22:58.036Z,17.56
2016-09-17T07:23:58.714Z,17.48
2016-09-17T07:24:59.368Z,17.46
2016-09-17T07:26:00.017Z,17.46
2016-09-17T07:27:00.845Z,17.57
2016-09-17T07:28:01.513Z,17.54
2016-09-17T07:29:02.186Z,17.64
2016-09-17T07:30:02.873Z,17.67
2016-09-17T07:31:03.540Z,17.74
2016-09-17T07:32:04.207Z,17.63
2016-09-17T07:33:04.929Z,17.54
2016-09-17T07:34:05.613Z,17.45
2016-09-17T07:35:06.285Z,17.51
2016-09-17T07:36:06.936Z,17.59
2016-09-17T07:37:07.618Z,17.48
2016-09-17T07:38:08.291Z,17.44
2016-09-17T07:39:08.951Z,17.49
2016-09-17T07:40:09.629Z,17.49
2016-09-17T07:41:10.305Z,17.6
2016-09-17T07:42:10.987Z,17.57
2016-09-17T07:43:11.647Z,17.59
2016-09-17T07:44:12.324Z,17.57
2016-09-17T07:45:12.992Z,17.63
2016-09-17T07:46:13.638Z,17.7
2016-09-17T07:47:14.285Z,17.57
2016-09-17T07:48:14.944Z,17.59
2016-09-17T07:49:15.604Z,17.54
2016-09-17T07:50:16.247Z,17.57
2016-09-17T07:51:16.924Z,17.54
2016-09-17T07:52:17.592Z,17.57
2016-09-17T07:53:18.262Z,17.6
2016-09-17T07:54:18.906Z,17.63
2016-09-17T07:55:19.562Z,17.59
2016-09-17T07:56:20.205Z,17.57
2016-09-17T07:57:20.851Z,17.65
2016-09-17T07:58:21.490Z,17.68
2016-09-17T07:59:22.147Z,17.63
2016-09-17T08:00:22.795Z,17.59
2016-09-17T08:01:23.444Z,17.52
2016-09-17T08:02:24.103Z,17.45
2016-09-17T08:03:24.761Z,17.45
2016-09-17T08:04:25.447Z,17.42
2016-09-17T08:05:26.092Z,17.63
2016-09-17T08:07:27.429Z,17.59
2016-09-17T08:08:28.087Z,17.71
2016-09-17T08:09:28.726Z,17.8
2016-09-17T08:10:29.401Z,17.7
2016-09-17T08:11:30.112Z,17.68
2016-09-17T08:12:30.755Z,17.64
2016-09-17T08:13:31.415Z,17.63
2016-09-17T08:14:32.092Z,17.7
2016-09-17T08:15:32.728Z,17.68
2016-09-17T08:16:33.383Z,17.72
2016-09-17T08:17:34.025Z,17.65
2016-09-17T08:18:34.680Z,17.82
2016-09-17T08:19:35.345Z,17.74
2016-09-17T08:20:35.988Z,17.72
2016-09-17T08:21:36.634Z,17.72
2016-09-17T08:22:37.272Z,17.83
2016-09-17T08:23:37.953Z,17.76
2016-09-17T08:24:38.614Z,17.67
2016-09-17T08:25:39.389Z,17.59
2016-09-17T08:26:40.048Z,17.59
2016-09-17T08:27:40.692Z,17.56
2016-09-17T08:28:41.346Z,17.63
2016-09-17T08:29:42.023Z,17.71
2016-09-17T08:30:42.674Z,17.76
2016-09-17T08:31:43.307Z,17.68
2016-09-17T08:32:43.995Z,17.63
2016-09-17T08:33:44.653Z,17.6
2016-09-17T08:34:45.335Z,17.7
2016-09-17T08:35:46.000Z,17.72
2016-09-17T08:36:46.671Z,17.76
2016-09-17T08:37:47.327Z,17.85
2016-09-17T08:38:47.983Z,17.83
2016-09-17T08:39:48.636Z,17.85
2016-09-17T08:40:49.274Z,17.85
2016-09-17T08:41:49.939Z,17.85
2016-09-17T08:42:50.599Z,18
2016-09-17T08:43:51.258Z,18
2016-09-17T08:44:51.946Z,18.03
2016-09-17T08:45:52.582Z,18.15
2016-09-17T08:46:53.237Z,17.98
2016-09-17T08:47:53.913Z,18.05
2016-09-17T08:48:54.576Z,18.01
2016-09-17T08:49:55.215Z,17.83
2016-09-17T08:50:55.890Z,17.87
2016-09-17T08:51:56.552Z,17.83
2016-09-17T08:52:57.219Z,17.74
2016-09-17T08:53:57.874Z,17.76
2016-09-17T08:54:58.539Z,17.59
2016-09-17T08:55:59.185Z,17.57
2016-09-17T08:56:59.870Z,17.7
2016-09-17T08:58:00.519Z,17.76
2016-09-17T08:59:01.222Z,17.65
2016-09-17T09:00:01.892Z,17.63
2016-09-17T09:01:02.593Z,17.65
2016-09-17T09:02:03.228Z,17.65
2016-09-17T09:03:03.905Z,17.45
2016-09-17T09:04:04.571Z,17.44
2016-09-17T09:05:05.278Z,17.57
2016-09-17T09:06:05.935Z,17.6
2016-09-17T09:07:06.716Z,17.59
2016-09-17T09:08:07.423Z,17.52
2016-09-17T09:09:08.090Z,17.6
2016-09-17T09:10:08.812Z,17.52
2016-09-17T09:11:09.495Z,17.64
2016-09-17T09:12:10.161Z,17.71
2016-09-17T09:13:10.827Z,17.7
2016-09-17T09:14:11.498Z,17.6
2016-09-17T09:15:12.180Z,17.54
2016-09-17T09:16:12.845Z,17.46
2016-09-17T09:17:13.534Z,17.54
2016-09-17T09:18:14.207Z,17.51
2016-09-17T09:19:14.887Z,17.57
2016-09-17T09:20:15.683Z,17.64
2016-09-17T09:21:16.314Z,17.6
2016-09-17T09:22:16.976Z,17.7
2016-09-17T09:23:18.323Z,17.78
2016-09-17T09:24:18.993Z,17.83
2016-09-17T09:25:19.661Z,17.76
2016-09-17T09:26:20.323Z,17.82
2016-09-17T09:27:20.992Z,17.86
2016-09-17T09:28:21.683Z,17.98
2016-09-17T09:29:22.439Z,18.01
2016-09-17T09:30:23.056Z,18.05
2016-09-17T09:31:23.709Z,18.04
2016-09-17T09:32:24.380Z,18.07
2016-09-17T09:33:25.068Z,18.1
2016-09-17T09:34:25.738Z,18.19
2016-09-17T09:35:26.407Z,18.2
2016-09-17T09:36:27.068Z,18.23
2016-09-17T09:37:27.738Z,18.22
2016-09-17T09:38:28.400Z,18.22
2016-09-17T09:39:29.054Z,18.22
2016-09-17T09:40:29.761Z,18.31
2016-09-17T09:41:30.482Z,18.34
2016-09-17T09:42:31.166Z,18.23
2016-09-17T09:43:31.846Z,18.25
2016-09-17T09:44:33.373Z,18.26
2016-09-17T09:45:34.097Z,18.26
2016-09-17T09:46:34.758Z,18.33
2016-09-17T09:47:35.432Z,18.25
2016-09-17T09:48:36.093Z,18.37
2016-09-17T09:49:36.787Z,18.37
2016-09-17T09:50:37.503Z,18.28
2016-09-17T09:51:38.177Z,18.26
2016-09-17T09:52:38.838Z,18.33
2016-09-17T09:53:39.501Z,18.29
2016-09-17T09:54:40.201Z,18.29
2016-09-17T09:55:40.879Z,18.35
2016-09-17T09:56:41.541Z,18.29
2016-09-17T09:57:42.214Z,18.43
2016-09-17T09:58:42.883Z,18.45
2016-09-17T09:59:43.558Z,18.5
2016-09-17T10:00:44.227Z,18.5
2016-09-17T10:01:44.874Z,18.47
2016-09-17T10:02:45.621Z,18.53
2016-09-17T10:03:46.202Z,18.56
2016-09-17T10:04:46.884Z,18.59
2016-09-17T10:05:47.568Z,18.58
2016-09-17T10:06:48.222Z,18.7
2016-09-17T10:07:48.894Z,18.68
2016-09-17T10:08:49.563Z,18.8
2016-09-17T10:09:50.240Z,18.78
2016-09-17T10:10:50.897Z,18.92
2016-09-17T10:11:51.556Z,18.86
2016-09-17T10:12:52.235Z,18.89
2016-09-17T10:13:52.909Z,18.95
2016-09-17T10:14:53.563Z,18.99
2016-09-17T10:15:54.217Z,19.11
2016-09-17T10:16:54.931Z,19.22
2016-09-17T10:17:55.592Z,19.31
2016-09-17T10:18:56.288Z,19.31
2016-09-17T10:19:56.967Z,19.3
2016-09-17T10:20:57.628Z,19.26
2016-09-17T10:21:58.295Z,19.39
2016-09-17T10:22:58.955Z,19.36
2016-09-17T10:23:59.633Z,19.41
2016-09-17T10:25:00.299Z,19.49
2016-09-17T10:26:00.963Z,19.56
2016-09-17T10:27:01.647Z,19.58
2016-09-17T10:28:03.101Z,19.51
2016-09-17T10:29:03.746Z,19.48
2016-09-17T10:30:04.414Z,19.56
2016-09-17T10:31:05.062Z,19.62
2016-09-17T10:32:05.727Z,19.63
2016-09-17T10:33:06.423Z,19.56
2016-09-17T10:34:07.071Z,19.7
2016-09-17T10:35:07.726Z,19.67
2016-09-17T10:36:08.377Z,19.71
2016-09-17T10:37:09.034Z,19.67
2016-09-17T10:38:09.682Z,19.58
2016-09-17T10:39:10.338Z,19.56
2016-09-17T10:40:10.991Z,19.63
2016-09-17T10:41:11.636Z,19.74
2016-09-17T10:42:12.303Z,19.76
2016-09-17T10:43:12.957Z,19.74
2016-09-17T10:44:13.628Z,19.73
2016-09-17T10:45:14.281Z,19.86
2016-09-17T10:46:14.946Z,19.7
2016-09-17T10:47:15.595Z,19.76
2016-09-17T10:48:16.264Z,19.73
2016-09-17T10:49:16.931Z,19.71
2016-09-17T10:50:17.584Z,19.79
2016-09-17T10:51:18.249Z,19.76
2016-09-17T10:52:18.905Z,19.74
2016-09-17T10:53:19.556Z,19.76
2016-09-17T10:54:20.224Z,19.84
2016-09-17T10:55:20.887Z,19.88
2016-09-17T10:56:21.545Z,19.92
2016-09-17T10:57:22.209Z,20
2016-09-17T10:58:22.852Z,20.02
2016-09-17T10:59:23.513Z,20.07
2016-09-17T11:00:24.176Z,20.1
2016-09-17T11:01:24.825Z,20.09
2016-09-17T11:02:25.476Z,20.19
2016-09-17T11:03:26.185Z,20.22
2016-09-17T11:04:26.841Z,20.25
2016-09-17T11:05:27.495Z,20.24
2016-09-17T11:06:28.160Z,20.21
2016-09-17T11:07:28.826Z,20.21
2016-09-17T11:08:29.484Z,20.26
2016-09-17T11:09:30.142Z,20.32
2016-09-17T11:10:30.786Z,20.31
2016-09-17T11:11:31.466Z,20.29
2016-09-17T11:12:32.253Z,20.34
2016-09-17T11:13:33.008Z,20.41
2016-09-17T11:14:33.686Z,20.44
2016-09-17T11:15:34.348Z,20.41
2016-09-17T11:16:34.987Z,20.44
2016-09-17T11:17:35.655Z,20.5
2016-09-17T11:18:36.336Z,20.55
2016-09-17T11:19:37.097Z,20.62
2016-09-17T11:20:37.789Z,20.6
2016-09-17T11:21:38.442Z,20.7
2016-09-17T11:22:39.115Z,20.72
2016-09-17T11:23:39.751Z,20.81
2016-09-17T11:24:40.420Z,20.85
2016-09-17T11:25:41.146Z,20.8
2016-09-17T11:26:41.820Z,20.78
2016-09-17T11:27:42.478Z,20.8
2016-09-17T11:28:43.194Z,20.7
2016-09-17T11:29:43.842Z,20.82
2016-09-17T11:30:44.540Z,20.72
2016-09-17T11:31:45.228Z,20.66
2016-09-17T11:32:45.887Z,20.66
2016-09-17T11:33:46.569Z,20.48
2016-09-17T11:34:47.228Z,20.48
2016-09-17T11:35:47.890Z,20.52
2016-09-17T11:36:48.562Z,20.4
2016-09-17T11:37:49.215Z,20.36
2016-09-17T11:38:49.943Z,20.4
2016-09-17T11:39:50.633Z,20.37
2016-09-17T11:40:51.324Z,20.34
2016-09-17T11:41:51.998Z,20.44
2016-09-17T11:42:52.669Z,20.36
2016-09-17T11:43:53.332Z,20.4
2016-09-17T11:44:54.013Z,20.43
2016-09-17T11:45:54.681Z,20.39
2016-09-17T11:46:55.351Z,20.34
2016-09-17T11:47:56.024Z,20.4
2016-09-17T11:48:56.701Z,20.5
2016-09-17T11:49:57.377Z,20.51
2016-09-17T11:50:58.045Z,20.43
2016-09-17T11:51:58.715Z,20.51
2016-09-17T11:52:59.384Z,20.55
2016-09-17T11:54:00.029Z,20.63
2016-09-17T11:55:00.727Z,20.63
2016-09-17T11:56:01.413Z,20.56
2016-09-17T11:57:02.078Z,20.6
2016-09-17T11:58:02.747Z,20.58
2016-09-17T11:59:03.417Z,20.62
2016-09-17T12:00:04.065Z,20.66
2016-09-17T12:01:04.720Z,20.69
2016-09-17T12:02:05.393Z,20.63
2016-09-17T12:03:06.043Z,20.77
2016-09-17T12:04:06.715Z,20.78
2016-09-17T12:05:07.403Z,20.81
2016-09-17T12:06:08.043Z,20.9
2016-09-17T12:07:08.696Z,20.82
2016-09-17T12:08:09.376Z,20.77
2016-09-17T12:09:10.032Z,20.85
2016-09-17T12:10:10.703Z,20.82
2016-09-17T12:11:11.344Z,20.85
2016-09-17T12:12:12.055Z,20.85
2016-09-17T12:13:12.710Z,20.81
2016-09-17T12:14:13.541Z,20.7
2016-09-17T12:15:14.184Z,20.82
2016-09-17T12:16:14.846Z,20.82
2016-09-17T12:17:15.556Z,20.7
2016-09-17T12:18:16.230Z,20.8
2016-09-17T12:19:16.884Z,20.85
2016-09-17T12:20:17.547Z,20.8
2016-09-17T12:21:18.222Z,20.84
2016-09-17T12:22:18.877Z,20.82
2016-09-17T12:23:19.555Z,20.85
2016-09-17T12:24:20.180Z,20.84
2016-09-17T12:25:20.840Z,20.87
2016-09-17T12:26:21.500Z,20.88
2016-09-17T12:27:22.152Z,20.97
2016-09-17T12:28:22.828Z,20.97
2016-09-17T12:29:23.621Z,20.95
2016-09-17T12:30:24.282Z,20.9
2016-09-17T12:31:24.935Z,20.99
2016-09-17T12:32:25.610Z,20.96
2016-09-17T12:33:26.280Z,20.82
2016-09-17T12:34:26.931Z,20.93
2016-09-17T12:35:27.611Z,20.85
2016-09-17T12:36:28.269Z,20.78
2016-09-17T12:37:28.932Z,20.6
2016-09-17T12:38:29.579Z,20.65
2016-09-17T12:39:30.231Z,20.56
2016-09-17T12:40:30.906Z,20.66
2016-09-17T12:41:31.569Z,20.59
2016-09-17T12:42:32.230Z,20.52
2016-09-17T12:43:32.890Z,20.48
2016-09-17T12:44:33.542Z,20.56
2016-09-17T12:45:34.214Z,20.51
2016-09-17T12:46:34.890Z,20.6
2016-09-17T12:47:35.552Z,20.52
2016-09-17T12:48:36.234Z,20.51
2016-09-17T12:49:36.874Z,20.5
2016-09-17T12:50:37.528Z,20.51
2016-09-17T12:51:38.197Z,20.58
2016-09-17T12:52:38.866Z,20.59
2016-09-17T12:53:39.518Z,20.62
2016-09-17T12:54:40.168Z,20.62
2016-09-17T12:55:40.815Z,20.58
2016-09-17T12:56:41.463Z,20.59
2016-09-17T12:57:42.133Z,20.65
2016-09-17T12:58:42.786Z,20.51
2016-09-17T12:59:43.452Z,20.43
2016-09-17T13:00:44.099Z,20.51
2016-09-17T13:01:44.757Z,20.47
2016-09-17T13:02:45.401Z,20.4
2016-09-17T13:03:46.057Z,20.5
2016-09-17T13:04:46.700Z,20.55
2016-09-17T13:05:47.397Z,20.43